Ashland, Illinois
Current Conditions -  °F | °C
As of 9:35 AM on Monday 22 Dec 2014 (Local Time) from KIJX Reporting Station
Light Rain Light Rain  
Wind Chill: 31°   Ceiling: 400
Heat Index: 39°   Visibility: 2mi
Dew Point: 37°   Wind: 15mph
Humidity: 93%   Direction: 110°ESE
Pressure: 29.72"   Gusts: NA
Location:  39.89°N, 90.01°W
Report Text: KIJX 221535Z AUTO 11013KT 2SM -RA OVC004 04/03 A2972 RMK AO2 P0005 T00400030
Loading
Personal Weather Stations






























Interactive Weather Map New forecast layout! Learn more

10-Day Weather Forecast

Advertisements
Track Severe Weather on mobile